Time;durP1;ratioP1;P1;durP2;ratioP2;P2;SDS_P1;SDS_P2;PMS_P1;PMS_P2;Temp;Humidity;BMP_temperature;BMP_pressure;BME280_temperature;BME280_humidity;BME280_pressure;Samples;Min_cycle;Max_cycle;Signal;HPM_P1;HPM_P2
2022/06/30 00:00:43;;;;;;;6.07;2.30;;;;;;;;;;5073558;28;20032;-42
2022/06/30 00:03:09;;;;;;;4.05;2.00;;;;;;;;;;5073674;28;20025;-42
2022/06/30 00:05:35;;;;;;;2.40;2.03;;;;;;;;;;5075130;28;20028;-41
2022/06/30 00:08:00;;;;;;;4.30;2.30;;;;;;;;;;5075045;28;20372;-41
2022/06/30 00:10:26;;;;;;;4.47;2.38;;;;;;;;;;5074111;28;20112;-45
2022/06/30 00:12:52;;;;;;;4.78;2.28;;;;;;;;;;5075403;28;20036;-42
2022/06/30 00:15:17;;;;;;;3.55;2.20;;;;;;;;;;5075548;28;20025;-41
2022/06/30 00:17:43;;;;;;;4.90;2.58;;;;;;;;;;5075385;28;20024;-42
2022/06/30 00:20:09;;;;;;;2.75;2.40;;;;;;;;;;5075107;28;20056;-42
2022/06/30 00:22:35;;;;;;;3.22;2.28;;;;;;;;;;5075405;28;20111;-43
2022/06/30 00:25:01;;;;;;;2.85;2.17;;;;;;;;;;5075155;28;20052;-41
2022/06/30 00:27:26;;;;;;;3.20;2.08;;;;;;;;;;5074872;28;20473;-42
2022/06/30 00:29:51;;;;;;;3.50;1.98;;;;;;;;;;5075005;28;20107;-42
2022/06/30 00:32:17;;;;;;;2.75;2.25;;;;;;;;;;5075249;28;20423;-44
2022/06/30 00:34:43;;;;;;;2.40;2.20;;;;;;;;;;5075154;28;20111;-41
2022/06/30 00:37:08;;;;;;;2.85;2.50;;;;;;;;;;5075172;28;20047;-41
2022/06/30 00:39:33;;;;;;;2.08;1.98;;;;;;;;;;5075056;28;20083;-41
2022/06/30 00:41:59;;;;;;;4.13;2.60;;;;;;;;;;5074757;28;20024;-44
2022/06/30 00:44:24;;;;;;;2.78;2.20;;;;;;;;;;5075000;28;20055;-43
2022/06/30 00:46:50;;;;;;;3.35;2.08;;;;;;;;;;5074652;28;20394;-42
2022/06/30 00:49:17;;;;;;;3.28;2.30;;;;;;;;;;5074887;28;20020;-44
2022/06/30 00:51:43;;;;;;;4.13;2.65;;;;;;;;;;5074790;28;20058;-43
2022/06/30 00:54:10;;;;;;;4.72;2.38;;;;;;;;;;5074735;28;20033;-43
2022/06/30 00:56:39;;;;;;;4.00;2.20;;;;;;;;;;5074715;28;20029;-42
2022/06/30 00:59:06;;;;;;;2.73;2.33;;;;;;;;;;5073103;28;20035;-48
2022/06/30 01:01:32;;;;;;;3.05;2.75;;;;;;;;;;5074464;28;20031;-44
2022/06/30 01:03:59;;;;;;;2.42;2.13;;;;;;;;;;5074603;28;20032;-44
2022/06/30 01:06:26;;;;;;;4.72;2.35;;;;;;;;;;5074392;28;20056;-44
2022/06/30 01:08:52;;;;;;;7.10;2.72;;;;;;;;;;5074245;28;20035;-43
2022/06/30 01:14:03;;;;;;;3.25;2.55;;;;;;;;;;5074490;28;20090;-46
2022/06/30 01:16:29;;;;;;;3.08;2.78;;;;;;;;;;5074411;28;20024;-41
2022/06/30 01:18:55;;;;;;;4.25;2.75;;;;;;;;;;5074217;28;20039;-44
2022/06/30 01:21:20;;;;;;;2.83;2.50;;;;;;;;;;5074104;28;20103;-45
2022/06/30 01:23:46;;;;;;;4.50;2.40;;;;;;;;;;5074232;28;20581;-48
2022/06/30 01:26:12;;;;;;;3.08;2.53;;;;;;;;;;5072723;28;20455;-41
2022/06/30 01:28:37;;;;;;;4.70;2.30;;;;;;;;;;5073702;28;20078;-41
2022/06/30 01:31:03;;;;;;;4.68;2.40;;;;;;;;;;5073827;28;20088;-43
2022/06/30 01:33:28;;;;;;;6.20;2.58;;;;;;;;;;5073858;28;20040;-42
2022/06/30 01:35:55;;;;;;;6.25;3.10;;;;;;;;;;5074030;28;20025;-41
2022/06/30 01:38:20;;;;;;;5.03;2.63;;;;;;;;;;5073858;28;20029;-42
2022/06/30 01:40:46;;;;;;;3.33;2.80;;;;;;;;;;5073645;28;20028;-41
2022/06/30 01:43:13;;;;;;;3.20;2.90;;;;;;;;;;5073842;28;20086;-41
2022/06/30 01:45:39;;;;;;;6.60;2.90;;;;;;;;;;5073835;28;20477;-41
2022/06/30 01:48:05;;;;;;;3.35;2.80;;;;;;;;;;5073427;28;20029;-41
2022/06/30 01:50:31;;;;;;;5.07;2.80;;;;;;;;;;5073410;28;20028;-42
2022/06/30 01:52:57;;;;;;;3.10;2.80;;;;;;;;;;5073736;28;20024;-43
2022/06/30 01:55:23;;;;;;;4.43;3.00;;;;;;;;;;5072204;28;20056;-42
2022/06/30 01:57:49;;;;;;;4.88;2.85;;;;;;;;;;5072709;28;20936;-41
2022/06/30 02:00:18;;;;;;;4.82;2.80;;;;;;;;;;5073498;28;20052;-40
2022/06/30 02:02:44;;;;;;;3.38;2.92;;;;;;;;;;5073231;28;20025;-40
2022/06/30 02:05:11;;;;;;;6.68;3.30;;;;;;;;;;5073446;28;20086;-41
2022/06/30 02:07:37;;;;;;;4.93;3.05;;;;;;;;;;5073126;28;20028;-41
2022/06/30 02:10:11;;;;;;;5.32;2.95;;;;;;;;;;5073402;28;20056;-46
2022/06/30 02:12:46;;;;;;;6.10;3.22;;;;;;;;;;5073227;28;20032;-43
2022/06/30 02:15:33;;;;;;;4.15;2.90;;;;;;;;;;5073247;28;20086;-42
2022/06/30 02:18:01;;;;;;;7.20;3.28;;;;;;;;;;5073078;28;20392;-45
2022/06/30 02:20:26;;;;;;;6.82;2.90;;;;;;;;;;5072945;28;20021;-44
2022/06/30 02:22:55;;;;;;;3.33;2.95;;;;;;;;;;5073013;28;20090;-44
2022/06/30 02:25:22;;;;;;;3.80;3.17;;;;;;;;;;5073077;28;20028;-41
2022/06/30 02:27:48;;;;;;;6.70;3.40;;;;;;;;;;5072755;28;20057;-41
2022/06/30 02:30:13;;;;;;;5.13;2.83;;;;;;;;;;5072690;28;20028;-42
2022/06/30 02:32:39;;;;;;;14.07;3.75;;;;;;;;;;5073013;28;20029;-42
2022/06/30 02:35:05;;;;;;;8.13;3.20;;;;;;;;;;5071533;28;20495;-42
2022/06/30 02:37:30;;;;;;;3.38;2.97;;;;;;;;;;5072553;28;20029;-42
2022/06/30 02:39:55;;;;;;;5.07;3.05;;;;;;;;;;5072869;28;20094;-43
2022/06/30 02:42:22;;;;;;;6.80;3.28;;;;;;;;;;5072551;28;20028;-44
2022/06/30 02:44:47;;;;;;;3.38;3.00;;;;;;;;;;5072907;28;20415;-42
2022/06/30 02:47:12;;;;;;;3.20;2.90;;;;;;;;;;5072482;28;20024;-44
2022/06/30 02:49:39;;;;;;;7.78;2.80;;;;;;;;;;5071597;28;20032;-42
2022/06/30 02:52:05;;;;;;;4.13;2.85;;;;;;;;;;5072789;28;20059;-42
2022/06/30 02:54:30;;;;;;;9.50;3.30;;;;;;;;;;5072790;28;20021;-45
2022/06/30 02:56:55;;;;;;;5.00;2.90;;;;;;;;;;5072364;28;20111;-48
2022/06/30 02:59:21;;;;;;;7.07;3.45;;;;;;;;;;5072611;28;20028;-48
2022/06/30 03:01:46;;;;;;;16.02;3.92;;;;;;;;;;5072684;28;20438;-47
2022/06/30 03:04:12;;;;;;;16.05;3.65;;;;;;;;;;5072642;28;20020;-43
2022/06/30 03:06:37;;;;;;;11.48;3.42;;;;;;;;;;5072358;28;20138;-43
2022/06/30 03:09:03;;;;;;;10.13;3.35;;;;;;;;;;5072277;28;20031;-42
2022/06/30 03:11:29;;;;;;;16.52;3.65;;;;;;;;;;5075424;28;20063;-43
2022/06/30 03:13:54;;;;;;;14.07;3.50;;;;;;;;;;5076471;28;20024;-47
2022/06/30 03:16:20;;;;;;;14.52;3.45;;;;;;;;;;5076437;28;20433;-42
2022/06/30 03:18:46;;;;;;;12.27;3.13;;;;;;;;;;5076561;28;20029;-46
2022/06/30 03:21:12;;;;;;;10.57;3.50;;;;;;;;;;5076606;28;20029;-43
2022/06/30 03:23:38;;;;;;;7.07;3.38;;;;;;;;;;5076198;28;20468;-42
2022/06/30 03:26:04;;;;;;;5.75;3.20;;;;;;;;;;5076277;28;20024;-47
2022/06/30 03:28:30;;;;;;;20.05;3.65;;;;;;;;;;5075948;28;20063;-42
2022/06/30 03:30:55;;;;;;;11.43;3.10;;;;;;;;;;5076158;28;20025;-42
2022/06/30 03:33:21;;;;;;;10.80;3.22;;;;;;;;;;5076094;28;20023;-42
2022/06/30 03:35:47;;;;;;;8.30;3.22;;;;;;;;;;5076076;28;20028;-42
2022/06/30 03:38:13;;;;;;;4.20;3.30;;;;;;;;;;5076238;28;20028;-44
2022/06/30 03:40:39;;;;;;;10.60;3.00;;;;;;;;;;5075931;28;20056;-43
2022/06/30 03:43:05;;;;;;;8.20;2.90;;;;;;;;;;5075890;28;20052;-42
2022/06/30 03:45:30;;;;;;;13.40;3.25;;;;;;;;;;5074969;28;20017;-42
2022/06/30 03:47:59;;;;;;;18.13;3.47;;;;;;;;;;5075995;28;20713;-41
2022/06/30 03:50:25;;;;;;;12.57;3.50;;;;;;;;;;5075759;28;20028;-44
2022/06/30 03:52:51;;;;;;;20.77;3.75;;;;;;;;;;5075990;28;20081;-42
2022/06/30 03:55:17;;;;;;;17.45;3.72;;;;;;;;;;5075598;28;20028;-42
2022/06/30 03:57:42;;;;;;;14.15;3.20;;;;;;;;;;5075880;28;20090;-42
2022/06/30 04:00:08;;;;;;;9.27;3.78;;;;;;;;;;5074265;28;20473;-42
2022/06/30 04:02:34;;;;;;;4.25;2.80;;;;;;;;;;5075705;28;20020;-42
2022/06/30 04:04:59;;;;;;;8.30;3.17;;;;;;;;;;5075445;28;20029;-48
2022/06/30 04:07:24;;;;;;;4.05;2.65;;;;;;;;;;5075733;28;20029;-42
2022/06/30 04:09:50;;;;;;;5.35;3.28;;;;;;;;;;5075328;28;20388;-45
2022/06/30 04:12:15;;;;;;;5.88;2.80;;;;;;;;;;5075635;28;20070;-43
2022/06/30 04:14:41;;;;;;;6.57;3.10;;;;;;;;;;5075587;28;20439;-42
2022/06/30 04:17:06;;;;;;;5.43;2.80;;;;;;;;;;5075568;28;20483;-42
2022/06/30 04:19:32;;;;;;;3.72;2.75;;;;;;;;;;5075433;28;20040;-41
2022/06/30 04:21:57;;;;;;;11.05;3.05;;;;;;;;;;5074989;28;20020;-42
2022/06/30 04:24:23;;;;;;;4.90;2.75;;;;;;;;;;5075163;28;20515;-51
2022/06/30 04:26:48;;;;;;;3.05;2.50;;;;;;;;;;5074987;28;20033;-42
2022/06/30 04:29:14;;;;;;;2.95;2.75;;;;;;;;;;5074874;28;20052;-42
2022/06/30 04:34:24;;;;;;;7.25;2.92;;;;;;;;;;5075225;28;20430;-48
2022/06/30 04:36:49;;;;;;;11.00;2.92;;;;;;;;;;5075163;28;20029;-40
2022/06/30 04:39:15;;;;;;;2.70;2.30;;;;;;;;;;5074904;28;20025;-43
2022/06/30 04:41:41;;;;;;;3.72;2.83;;;;;;;;;;5074845;28;20103;-43
2022/06/30 04:44:06;;;;;;;4.78;2.83;;;;;;;;;;5074881;28;20107;-46
2022/06/30 04:46:32;;;;;;;2.30;2.13;;;;;;;;;;5074635;28;20078;-40
2022/06/30 04:48:57;;;;;;;11.93;3.33;;;;;;;;;;5075011;28;20035;-44
2022/06/30 04:51:23;;;;;;;3.83;2.58;;;;;;;;;;5074644;28;20487;-42
2022/06/30 04:53:50;;;;;;;3.70;2.58;;;;;;;;;;5074147;28;20035;-46
2022/06/30 04:56:16;;;;;;;7.05;2.75;;;;;;;;;;5074190;28;20047;-53
2022/06/30 04:58:41;;;;;;;3.20;2.90;;;;;;;;;;5074375;28;20476;-47
2022/06/30 05:01:07;;;;;;;6.38;3.00;;;;;;;;;;5074709;28;20041;-44
2022/06/30 05:03:33;;;;;;;9.10;3.00;;;;;;;;;;5074508;28;20024;-47
2022/06/30 05:05:59;;;;;;;6.10;3.13;;;;;;;;;;5074486;28;20369;-57
2022/06/30 05:08:25;;;;;;;10.30;3.53;;;;;;;;;;5072964;28;20111;-53
2022/06/30 05:10:51;;;;;;;5.72;2.83;;;;;;;;;;5074434;28;20040;-48
2022/06/30 05:13:17;;;;;;;2.85;2.60;;;;;;;;;;5074703;28;20024;-55
2022/06/30 05:15:45;;;;;;;3.42;2.70;;;;;;;;;;5074100;28;20474;-43
2022/06/30 05:18:11;;;;;;;4.53;2.80;;;;;;;;;;5072830;28;20111;-41
2022/06/30 05:20:36;;;;;;;13.25;3.15;;;;;;;;;;5074076;28;20534;-51
2022/06/30 05:23:02;;;;;;;6.38;2.78;;;;;;;;;;5073959;28;20020;-46
2022/06/30 05:28:12;;;;;;;3.38;2.90;;;;;;;;;;5073747;28;20055;-47
2022/06/30 05:30:38;;;;;;;5.55;2.58;;;;;;;;;;5073932;28;20020;-45
2022/06/30 05:33:03;;;;;;;7.55;2.83;;;;;;;;;;5073193;28;20024;-50
2022/06/30 05:35:28;;;;;;;4.55;2.60;;;;;;;;;;5073566;28;20024;-51
2022/06/30 05:37:54;;;;;;;5.28;2.72;;;;;;;;;;5072733;28;20037;-43
2022/06/30 05:40:19;;;;;;;4.38;2.72;;;;;;;;;;5072403;28;20024;-47
2022/06/30 05:42:45;;;;;;;7.30;2.80;;;;;;;;;;5072520;28;20081;-41
2022/06/30 05:45:11;;;;;;;3.90;3.00;;;;;;;;;;5071755;28;20482;-56
2022/06/30 05:47:52;;;;;;;6.20;3.08;;;;;;;;;;5072324;28;20095;-51
2022/06/30 05:50:21;;;;;;;6.00;2.92;;;;;;;;;;5072625;28;20067;-43
2022/06/30 05:52:50;;;;;;;13.43;3.92;;;;;;;;;;5073326;28;20481;-54
2022/06/30 05:55:16;;;;;;;4.65;2.80;;;;;;;;;;5072066;28;20043;-41
2022/06/30 05:57:54;;;;;;;2.97;2.45;;;;;;;;;;5071334;28;20024;-54
2022/06/30 06:00:21;;;;;;;4.57;2.85;;;;;;;;;;5072148;28;20032;-45
2022/06/30 06:02:46;;;;;;;5.50;2.28;;;;;;;;;;5071791;28;20116;-56
2022/06/30 06:05:12;;;;;;;5.18;2.65;;;;;;;;;;5072049;28;20166;-41
2022/06/30 06:07:38;;;;;;;3.17;2.75;;;;;;;;;;5072048;28;20021;-56
2022/06/30 06:10:04;;;;;;;6.03;2.58;;;;;;;;;;5072279;28;20021;-43
2022/06/30 06:12:29;;;;;;;4.25;2.80;;;;;;;;;;5072927;28;20035;-43
2022/06/30 06:14:54;;;;;;;5.00;3.00;;;;;;;;;;5072489;28;20083;-43
2022/06/30 06:17:20;;;;;;;2.78;2.20;;;;;;;;;;5072877;28;20025;-47
2022/06/30 06:19:45;;;;;;;5.15;3.05;;;;;;;;;;5072762;28;20032;-57
2022/06/30 06:22:11;;;;;;;3.80;2.88;;;;;;;;;;5072550;28;20024;-55
2022/06/30 06:24:36;;;;;;;2.80;2.60;;;;;;;;;;5073210;28;20032;-41
2022/06/30 06:27:02;;;;;;;5.63;3.45;;;;;;;;;;5072824;28;20033;-47
2022/06/30 06:29:27;;;;;;;5.65;3.10;;;;;;;;;;5072547;28;20074;-44
2022/06/30 06:31:54;;;;;;;6.10;3.30;;;;;;;;;;5072735;28;20049;-47
2022/06/30 06:34:19;;;;;;;3.75;2.80;;;;;;;;;;5073008;28;20036;-53
2022/06/30 06:36:45;;;;;;;2.85;2.58;;;;;;;;;;5072709;28;20024;-47
2022/06/30 06:39:10;;;;;;;3.10;2.72;;;;;;;;;;5071270;28;20028;-49
2022/06/30 06:41:35;;;;;;;3.15;2.42;;;;;;;;;;5072661;28;20021;-53
2022/06/30 06:44:01;;;;;;;9.23;2.83;;;;;;;;;;5072462;28;20029;-44
2022/06/30 06:46:27;;;;;;;5.78;2.70;;;;;;;;;;5072671;28;20060;-45
2022/06/30 06:48:54;;;;;;;3.42;2.22;;;;;;;;;;5072316;28;20052;-43
2022/06/30 06:51:20;;;;;;;4.07;2.63;;;;;;;;;;5072502;28;20103;-52
2022/06/30 06:53:45;;;;;;;4.60;2.40;;;;;;;;;;5071692;28;20111;-50
2022/06/30 06:56:11;;;;;;;5.15;2.90;;;;;;;;;;5070520;28;20028;-44
2022/06/30 06:58:37;;;;;;;3.10;2.58;;;;;;;;;;5071124;28;20027;-45
2022/06/30 07:01:04;;;;;;;3.75;2.40;;;;;;;;;;5072285;28;20392;-58
2022/06/30 07:03:30;;;;;;;9.25;2.40;;;;;;;;;;5072579;28;20029;-46
2022/06/30 07:05:56;;;;;;;5.20;2.50;;;;;;;;;;5072536;28;20022;-47
2022/06/30 07:08:22;;;;;;;7.65;2.50;;;;;;;;;;5072121;28;20043;-41
2022/06/30 07:10:47;;;;;;;5.57;2.50;;;;;;;;;;5072426;28;20024;-43
2022/06/30 07:13:12;;;;;;;6.80;2.47;;;;;;;;;;5072489;28;20025;-43
2022/06/30 07:15:38;;;;;;;6.38;2.42;;;;;;;;;;5071693;28;20086;-43
2022/06/30 07:18:03;;;;;;;3.40;2.03;;;;;;;;;;5071807;28;20023;-54
2022/06/30 07:20:30;;;;;;;3.85;2.70;;;;;;;;;;5072371;28;20028;-56
2022/06/30 07:22:55;;;;;;;3.30;2.30;;;;;;;;;;5071384;28;20431;-51
2022/06/30 07:25:20;;;;;;;3.05;2.30;;;;;;;;;;5071587;28;20027;-59
2022/06/30 07:27:46;;;;;;;3.78;2.75;;;;;;;;;;5071795;28;20071;-57
2022/06/30 07:30:11;;;;;;;4.05;2.45;;;;;;;;;;5071561;28;20403;-43
2022/06/30 07:32:37;;;;;;;5.28;2.25;;;;;;;;;;5072354;28;20020;-52
2022/06/30 07:35:04;;;;;;;3.13;2.50;;;;;;;;;;5072006;28;20031;-43
2022/06/30 07:37:30;;;;;;;2.88;2.30;;;;;;;;;;5071816;28;20033;-46
2022/06/30 07:39:56;;;;;;;3.05;2.55;;;;;;;;;;5072086;28;20055;-42
2022/06/30 07:42:21;;;;;;;2.45;1.88;;;;;;;;;;5072027;28;20107;-44
2022/06/30 07:44:47;;;;;;;3.35;2.30;;;;;;;;;;5071714;28;20025;-43
2022/06/30 07:47:12;;;;;;;2.90;2.00;;;;;;;;;;5072192;28;20490;-57
2022/06/30 07:49:40;;;;;;;2.50;2.28;;;;;;;;;;5072193;28;20451;-47
2022/06/30 07:52:06;;;;;;;2.97;2.53;;;;;;;;;;5072155;28;20028;-41
2022/06/30 07:54:32;;;;;;;2.83;2.38;;;;;;;;;;5071623;28;20074;-46
2022/06/30 07:56:58;;;;;;;3.90;2.38;;;;;;;;;;5075034;28;20044;-41
2022/06/30 07:59:23;;;;;;;3.42;2.40;;;;;;;;;;5075782;28;20032;-46
2022/06/30 08:01:49;;;;;;;4.40;2.45;;;;;;;;;;5070195;28;20040;-40
2022/06/30 08:04:17;;;;;;;6.30;2.47;;;;;;;;;;5075334;28;20028;-40
2022/06/30 08:06:42;;;;;;;7.47;2.25;;;;;;;;;;5075696;28;20100;-42
2022/06/30 08:09:08;;;;;;;3.42;2.40;;;;;;;;;;5075645;28;20540;-41
2022/06/30 08:11:33;;;;;;;4.03;2.60;;;;;;;;;;5074968;28;20384;-42
2022/06/30 08:13:59;;;;;;;2.78;2.20;;;;;;;;;;5075608;28;20024;-44
2022/06/30 08:16:25;;;;;;;3.10;2.28;;;;;;;;;;5075148;28;20476;-44
2022/06/30 08:18:50;;;;;;;6.22;2.50;;;;;;;;;;5075405;28;20043;-41
2022/06/30 08:21:16;;;;;;;3.90;2.50;;;;;;;;;;5073526;28;20031;-49
2022/06/30 08:23:41;;;;;;;14.60;2.80;;;;;;;;;;5073518;28;20028;-40
2022/06/30 08:26:07;;;;;;;3.15;2.58;;;;;;;;;;5073878;28;20042;-43
2022/06/30 08:28:33;;;;;;;2.47;2.10;;;;;;;;;;5073282;28;20049;-54
2022/06/30 08:31:00;;;;;;;3.28;2.40;;;;;;;;;;5072913;28;20473;-41
2022/06/30 08:33:27;;;;;;;3.92;2.45;;;;;;;;;;5072828;28;20028;-41
2022/06/30 08:35:52;;;;;;;4.15;2.50;;;;;;;;;;5073601;28;20796;-47
2022/06/30 08:38:18;;;;;;;4.25;2.45;;;;;;;;;;5073246;28;20041;-42
2022/06/30 08:43:32;;;;;;;7.35;2.75;;;;;;;;;;5073478;28;20633;-43
2022/06/30 08:45:58;;;;;;;3.25;2.35;;;;;;;;;;5073252;28;20066;-39
2022/06/30 08:48:24;;;;;;;5.93;2.50;;;;;;;;;;5073256;28;20024;-40
2022/06/30 08:50:54;;;;;;;6.07;2.63;;;;;;;;;;5073252;28;20528;-39
2022/06/30 08:53:23;;;;;;;3.72;2.42;;;;;;;;;;5073178;28;20480;-40
2022/06/30 08:55:50;;;;;;;3.05;1.83;;;;;;;;;;5072794;28;20052;-41
2022/06/30 08:58:18;;;;;;;4.88;2.58;;;;;;;;;;5072748;28;20024;-39
2022/06/30 09:00:44;;;;;;;2.60;2.40;;;;;;;;;;5073237;28;20029;-42
2022/06/30 09:03:11;;;;;;;4.35;2.35;;;;;;;;;;5072788;28;20082;-40
2022/06/30 09:05:37;;;;;;;4.57;2.63;;;;;;;;;;5073023;28;20086;-40
2022/06/30 09:08:02;;;;;;;10.98;2.88;;;;;;;;;;5071744;28;20120;-39
2022/06/30 09:10:28;;;;;;;3.80;2.78;;;;;;;;;;5072834;28;20467;-39
2022/06/30 09:13:01;;;;;;;6.43;2.70;;;;;;;;;;5072807;28;20082;-40
2022/06/30 09:15:31;;;;;;;6.40;2.80;;;;;;;;;;5072722;28;20021;-40
2022/06/30 09:18:00;;;;;;;3.63;2.50;;;;;;;;;;5072792;28;20561;-39
2022/06/30 09:20:53;;;;;;;5.60;2.90;;;;;;;;;;5072592;28;20043;-40
2022/06/30 09:23:25;;;;;;;3.33;2.80;;;;;;;;;;5069589;28;20594;-43
2022/06/30 09:25:54;;;;;;;11.65;2.80;;;;;;;;;;5072593;28;20063;-41
2022/06/30 09:28:44;;;;;;;2.60;2.40;;;;;;;;;;5072408;28;20037;-41
2022/06/30 09:31:11;;;;;;;2.53;2.33;;;;;;;;;;5071829;28;20028;-40
2022/06/30 09:33:39;;;;;;;4.65;2.40;;;;;;;;;;5072201;28;20029;-45
2022/06/30 09:36:28;;;;;;;3.42;2.80;;;;;;;;;;5072402;28;20711;-43
2022/06/30 09:39:04;;;;;;;3.67;2.50;;;;;;;;;;5062844;28;20042;-47
2022/06/30 09:41:31;;;;;;;8.73;2.80;;;;;;;;;;5072440;28;20036;-48
2022/06/30 09:43:58;;;;;;;2.08;1.90;;;;;;;;;;5072336;28;20372;-42
2022/06/30 09:46:24;;;;;;;3.40;2.53;;;;;;;;;;5071182;28;20024;-39
2022/06/30 09:48:50;;;;;;;6.45;2.70;;;;;;;;;;5072287;28;20097;-41
2022/06/30 09:51:15;;;;;;;7.40;2.88;;;;;;;;;;5072115;28;20456;-40
2022/06/30 09:53:41;;;;;;;4.72;2.53;;;;;;;;;;5071934;28;20049;-39
2022/06/30 09:56:16;;;;;;;4.57;3.08;;;;;;;;;;5071537;28;20074;-43
2022/06/30 09:58:42;;;;;;;6.00;2.47;;;;;;;;;;5070292;28;20380;-39
2022/06/30 10:01:10;;;;;;;4.95;2.65;;;;;;;;;;5070839;28;20040;-40
2022/06/30 10:03:46;;;;;;;6.65;2.42;;;;;;;;;;5071867;28;20016;-42
2022/06/30 10:06:16;;;;;;;8.13;2.50;;;;;;;;;;5070211;28;20035;-39
2022/06/30 10:08:42;;;;;;;4.85;2.63;;;;;;;;;;5070466;28;20067;-45
2022/06/30 10:11:09;;;;;;;2.65;2.35;;;;;;;;;;5071357;28;20055;-41
2022/06/30 10:13:36;;;;;;;2.83;2.55;;;;;;;;;;5071952;28;20052;-40
2022/06/30 10:16:04;;;;;;;6.88;2.60;;;;;;;;;;5071247;28;20392;-39
2022/06/30 10:18:32;;;;;;;4.05;2.20;;;;;;;;;;5071067;28;20428;-46
2022/06/30 10:20:58;;;;;;;4.20;2.60;;;;;;;;;;5071313;28;20025;-50
2022/06/30 10:23:24;;;;;;;9.18;2.47;;;;;;;;;;5071178;28;20017;-42
2022/06/30 10:25:51;;;;;;;2.80;2.50;;;;;;;;;;5071211;28;20044;-50
2022/06/30 10:28:19;;;;;;;7.03;2.80;;;;;;;;;;5070082;28;20040;-48
2022/06/30 10:31:00;;;;;;;2.65;2.45;;;;;;;;;;5071123;28;20033;-43
2022/06/30 10:33:47;;;;;;;2.92;2.45;;;;;;;;;;5071155;28;20108;-47
2022/06/30 10:36:20;;;;;;;3.97;2.53;;;;;;;;;;5071384;28;20098;-44
2022/06/30 10:38:51;;;;;;;2.92;2.55;;;;;;;;;;5070878;28;20052;-40
2022/06/30 10:41:17;;;;;;;7.18;2.90;;;;;;;;;;5071302;28;20039;-40
2022/06/30 10:44:04;;;;;;;4.25;2.90;;;;;;;;;;5071197;28;20024;-39
2022/06/30 11:10:33;;;;;;;5.75;2.97;;;;;;;;;;5067738;28;20814;-41
2022/06/30 11:12:59;;;;;;;5.00;3.13;;;;;;;;;;5068166;28;20048;-43
2022/06/30 11:15:51;;;;;;;3.92;3.20;;;;;;;;;;5067916;28;20029;-48
2022/06/30 11:18:17;;;;;;;15.43;3.60;;;;;;;;;;5067933;28;20021;-48
2022/06/30 11:20:43;;;;;;;10.63;3.30;;;;;;;;;;5068717;28;20025;-51
2022/06/30 11:23:10;;;;;;;3.47;3.17;;;;;;;;;;5069716;28;20475;-48
2022/06/30 11:28:21;;;;;;;5.30;3.30;;;;;;;;;;5069328;28;20091;-47
2022/06/30 11:30:47;;;;;;;7.25;3.65;;;;;;;;;;5068551;28;20032;-44
2022/06/30 11:33:14;;;;;;;7.00;3.38;;;;;;;;;;5069025;28;20029;-44
2022/06/30 11:35:39;;;;;;;9.55;3.63;;;;;;;;;;5069056;28;20146;-52
2022/06/30 11:38:06;;;;;;;4.40;3.65;;;;;;;;;;5068940;28;20047;-48
2022/06/30 11:40:33;;;;;;;6.18;3.20;;;;;;;;;;5068736;28;20024;-48
2022/06/30 11:42:58;;;;;;;7.30;3.15;;;;;;;;;;5068881;28;20424;-48
2022/06/30 11:45:24;;;;;;;8.52;3.92;;;;;;;;;;5069173;28;20116;-46
2022/06/30 11:48:05;;;;;;;4.18;3.70;;;;;;;;;;5069100;28;20016;-40
2022/06/30 11:50:31;;;;;;;7.82;3.70;;;;;;;;;;5068391;28;20025;-51
2022/06/30 11:53:00;;;;;;;8.68;3.75;;;;;;;;;;5068536;28;20376;-49
2022/06/30 11:55:28;;;;;;;9.48;3.72;;;;;;;;;;5068893;28;20040;-49
2022/06/30 11:57:54;;;;;;;6.82;3.50;;;;;;;;;;5068593;28;20029;-52
2022/06/30 12:00:22;;;;;;;5.25;3.72;;;;;;;;;;5067054;28;20029;-42
2022/06/30 12:02:48;;;;;;;4.30;3.40;;;;;;;;;;5068420;28;20028;-42
2022/06/30 12:05:16;;;;;;;7.20;3.88;;;;;;;;;;5068546;28;20038;-45
2022/06/30 12:07:43;;;;;;;13.30;4.40;;;;;;;;;;5068368;28;20103;-48
2022/06/30 12:10:11;;;;;;;4.90;3.78;;;;;;;;;;5062158;28;20048;-41
2022/06/30 12:12:37;;;;;;;5.53;4.10;;;;;;;;;;5055099;28;20392;-46
2022/06/30 12:15:09;;;;;;;6.13;3.30;;;;;;;;;;5055118;28;20033;-44
2022/06/30 12:17:39;;;;;;;10.65;3.47;;;;;;;;;;5054935;28;20041;-51
2022/06/30 12:20:08;;;;;;;8.05;3.88;;;;;;;;;;5053790;28;20029;-45
2022/06/30 12:22:38;;;;;;;6.20;3.50;;;;;;;;;;5053706;28;20028;-47
2022/06/30 12:25:05;;;;;;;7.65;3.58;;;;;;;;;;5053632;28;20029;-43
2022/06/30 12:27:52;;;;;;;5.68;3.58;;;;;;;;;;5052763;28;20048;-45
2022/06/30 12:30:24;;;;;;;6.22;3.72;;;;;;;;;;5053038;28;20032;-47
2022/06/30 12:32:56;;;;;;;6.75;3.60;;;;;;;;;;5053094;28;20021;-50
2022/06/30 12:35:25;;;;;;;7.32;3.83;;;;;;;;;;5053343;28;20033;-40
2022/06/30 12:37:51;;;;;;;7.65;3.50;;;;;;;;;;5052996;28;20082;-45
2022/06/30 12:40:21;;;;;;;7.38;3.88;;;;;;;;;;5052942;28;20104;-44
2022/06/30 12:42:49;;;;;;;13.40;3.40;;;;;;;;;;5051698;28;20139;-42
2022/06/30 12:45:33;;;;;;;6.75;3.40;;;;;;;;;;5052914;28;20017;-45
2022/06/30 12:47:59;;;;;;;5.57;3.33;;;;;;;;;;5052933;28;20039;-43
2022/06/30 12:50:24;;;;;;;5.63;3.20;;;;;;;;;;5052763;28;20028;-48
2022/06/30 12:52:50;;;;;;;4.30;3.70;;;;;;;;;;5052826;28;20029;-46
2022/06/30 12:55:15;;;;;;;10.55;3.75;;;;;;;;;;5052794;28;20082;-49
2022/06/30 12:57:47;;;;;;;6.60;3.83;;;;;;;;;;5052951;28;20025;-47
2022/06/30 13:00:14;;;;;;;9.00;4.03;;;;;;;;;;5052848;28;20052;-47
2022/06/30 13:02:39;;;;;;;13.38;4.10;;;;;;;;;;5052730;28;20083;-44
2022/06/30 13:05:11;;;;;;;7.60;3.60;;;;;;;;;;5052865;28;20033;-49
2022/06/30 13:07:36;;;;;;;10.57;4.15;;;;;;;;;;5052841;28;20032;-50
2022/06/30 13:10:03;;;;;;;7.00;3.83;;;;;;;;;;5052333;28;20045;-48
2022/06/30 13:12:29;;;;;;;9.80;3.45;;;;;;;;;;5052314;28;20480;-45
2022/06/30 13:14:54;;;;;;;7.40;3.50;;;;;;;;;;5052431;28;20036;-48
2022/06/30 13:17:20;;;;;;;9.18;3.35;;;;;;;;;;5052441;28;20108;-49
2022/06/30 13:19:45;;;;;;;8.10;3.28;;;;;;;;;;5052485;28;20064;-46
2022/06/30 13:22:11;;;;;;;6.07;3.10;;;;;;;;;;5051125;28;20075;-42
2022/06/30 13:24:36;;;;;;;6.90;3.45;;;;;;;;;;5052224;28;20032;-40
2022/06/30 13:27:03;;;;;;;9.27;4.05;;;;;;;;;;5052028;28;20081;-39
2022/06/30 13:29:33;;;;;;;11.05;4.38;;;;;;;;;;5052132;28;20037;-40
2022/06/30 13:31:59;;;;;;;12.20;4.10;;;;;;;;;;5052288;28;20113;-43
2022/06/30 13:34:25;;;;;;;9.25;4.18;;;;;;;;;;5052358;28;20448;-45
2022/06/30 13:36:52;;;;;;;8.38;4.10;;;;;;;;;;5052014;28;20059;-40
2022/06/30 13:39:18;;;;;;;6.70;3.67;;;;;;;;;;5051848;28;20033;-41
2022/06/30 13:41:44;;;;;;;6.43;3.40;;;;;;;;;;5051573;28;20025;-49
2022/06/30 13:44:10;;;;;;;8.48;3.35;;;;;;;;;;5051782;28;20032;-45
2022/06/30 13:46:38;;;;;;;6.13;3.40;;;;;;;;;;5052192;28;20021;-49
2022/06/30 13:49:04;;;;;;;5.75;3.90;;;;;;;;;;5051934;28;20047;-40
2022/06/30 13:51:30;;;;;;;9.32;3.55;;;;;;;;;;5051582;28;20041;-49
2022/06/30 13:53:57;;;;;;;13.27;3.72;;;;;;;;;;5051438;28;20032;-46
2022/06/30 13:56:24;;;;;;;8.30;3.15;;;;;;;;;;5051596;28;20222;-43
2022/06/30 13:58:50;;;;;;;9.63;4.05;;;;;;;;;;5051428;28;20025;-40
2022/06/30 14:01:15;;;;;;;8.38;3.88;;;;;;;;;;5051349;28;20090;-44
2022/06/30 14:03:41;;;;;;;11.88;4.22;;;;;;;;;;5051414;28;20024;-39
2022/06/30 14:06:07;;;;;;;11.00;4.30;;;;;;;;;;5051592;28;20035;-43
2022/06/30 14:08:33;;;;;;;10.50;3.90;;;;;;;;;;5051401;28;20048;-45
2022/06/30 14:10:59;;;;;;;12.00;4.72;;;;;;;;;;5051194;28;20063;-42
2022/06/30 14:13:25;;;;;;;7.50;3.70;;;;;;;;;;5051446;28;20029;-45
2022/06/30 14:15:51;;;;;;;9.77;3.85;;;;;;;;;;5050987;28;20031;-45
2022/06/30 14:18:17;;;;;;;9.68;3.70;;;;;;;;;;5051095;28;20032;-47
2022/06/30 14:20:47;;;;;;;9.60;3.80;;;;;;;;;;5050923;28;20764;-49
2022/06/30 14:23:13;;;;;;;13.13;3.80;;;;;;;;;;5051095;28;20033;-48
2022/06/30 14:25:38;;;;;;;15.88;4.38;;;;;;;;;;5051270;28;20025;-47
2022/06/30 14:28:04;;;;;;;14.02;3.92;;;;;;;;;;5051162;28;20025;-48
2022/06/30 14:30:31;;;;;;;12.90;3.88;;;;;;;;;;5051138;28;20062;-40
2022/06/30 14:32:57;;;;;;;15.05;3.90;;;;;;;;;;5050660;28;20567;-51
2022/06/30 14:35:23;;;;;;;12.52;5.68;;;;;;;;;;5051293;28;20033;-46
2022/06/30 14:37:48;;;;;;;12.80;4.03;;;;;;;;;;5050906;28;20102;-48
2022/06/30 14:40:16;;;;;;;8.13;3.40;;;;;;;;;;5050958;28;20480;-47
2022/06/30 14:42:43;;;;;;;15.65;3.78;;;;;;;;;;5050747;28;20064;-46
2022/06/30 14:45:32;;;;;;;11.13;3.58;;;;;;;;;;5050999;28;20029;-48
2022/06/30 14:47:58;;;;;;;14.18;3.65;;;;;;;;;;5050802;28;20036;-47
2022/06/30 14:50:24;;;;;;;9.60;3.35;;;;;;;;;;5050905;28;20037;-42
2022/06/30 14:52:50;;;;;;;11.60;3.70;;;;;;;;;;5050639;28;20032;-46
2022/06/30 14:55:18;;;;;;;17.88;4.00;;;;;;;;;;5049410;28;20056;-48
2022/06/30 14:57:44;;;;;;;7.63;3.70;;;;;;;;;;5050776;28;20032;-49
2022/06/30 15:00:15;;;;;;;19.13;3.80;;;;;;;;;;5050853;28;20045;-48
2022/06/30 15:02:43;;;;;;;11.00;3.33;;;;;;;;;;5050992;28;20033;-50
2022/06/30 15:05:09;;;;;;;13.55;3.60;;;;;;;;;;5050621;28;20461;-49
2022/06/30 15:07:35;;;;;;;13.20;3.20;;;;;;;;;;5050567;28;20044;-48
2022/06/30 15:10:01;;;;;;;13.77;3.60;;;;;;;;;;5049079;28;20120;-48
2022/06/30 15:12:26;;;;;;;11.57;3.40;;;;;;;;;;5050499;28;20566;-46
2022/06/30 15:14:51;;;;;;;12.88;3.72;;;;;;;;;;5050777;28;20456;-40
2022/06/30 15:17:17;;;;;;;11.60;3.33;;;;;;;;;;5050927;28;20757;-42